createdAt,value
2022-12-22T00:01:50.218Z,59.00
2022-12-22T00:07:17.617Z,58.94
2022-12-22T00:12:42.630Z,60.50
2022-12-22T00:18:07.372Z,59.84
2022-12-22T00:23:32.356Z,59.82
2022-12-22T00:28:58.121Z,59.81
2022-12-22T00:34:22.832Z,60.46
2022-12-22T00:39:49.192Z,59.58
2022-12-22T00:45:14.359Z,59.12
2022-12-22T00:50:39.764Z,59.45
2022-12-22T00:56:04.667Z,59.92
2022-12-22T01:01:32.791Z,58.32
2022-12-22T01:06:58.076Z,58.37
2022-12-22T01:12:25.173Z,58.86
2022-12-22T01:17:50.774Z,58.31
2022-12-22T01:23:16.019Z,59.03
2022-12-22T01:28:41.656Z,58.90
2022-12-22T01:34:06.854Z,59.23
2022-12-22T01:39:32.183Z,59.44
2022-12-22T01:44:57.247Z,60.88
2022-12-22T01:50:22.588Z,60.07
2022-12-22T01:55:48.235Z,60.03
2022-12-22T02:01:13.513Z,60.69
2022-12-22T02:07:01.108Z,61.18
2022-12-22T02:12:36.672Z,59.67
2022-12-22T02:18:27.462Z,59.96
2022-12-22T02:24:19.783Z,59.27
2022-12-22T02:30:15.333Z,60.31
2022-12-22T02:35:39.712Z,60.57
2022-12-22T02:41:35.833Z,60.30
2022-12-22T02:47:43.543Z,60.08
2022-12-22T02:53:11.148Z,60.29
2022-12-22T02:58:36.736Z,59.75
2022-12-22T03:04:02.743Z,60.81
2022-12-22T03:09:27.609Z,60.19
2022-12-22T03:14:52.348Z,60.93
2022-12-22T03:20:17.645Z,60.25
2022-12-22T03:25:42.804Z,60.33
2022-12-22T03:31:05.371Z,60.54
2022-12-22T03:36:10.969Z,60.49
2022-12-22T03:41:36.260Z,60.92
2022-12-22T03:46:41.803Z,61.04
2022-12-22T03:51:49.769Z,60.49
2022-12-22T03:56:55.343Z,60.39
2022-12-22T04:02:00.894Z,60.23
2022-12-22T04:07:06.279Z,62.04
2022-12-22T04:12:31.572Z,61.30
2022-12-22T04:17:36.924Z,61.76
2022-12-22T04:22:42.367Z,61.18
2022-12-22T04:27:47.802Z,62.23
2022-12-22T04:32:51.976Z,62.98
2022-12-22T04:37:56.140Z,61.33
2022-12-22T04:43:00.690Z,61.40
2022-12-22T04:48:04.889Z,61.47
2022-12-22T04:53:09.023Z,60.48
2022-12-22T04:58:13.072Z,61.30
2022-12-22T05:03:17.357Z,61.72
2022-12-22T05:08:21.666Z,62.05
2022-12-22T05:13:25.838Z,63.32
2022-12-22T05:18:29.892Z,62.29
2022-12-22T05:23:34.337Z,61.76
2022-12-22T05:28:38.447Z,61.96
2022-12-22T05:33:42.486Z,61.41
2022-12-22T05:38:46.858Z,62.72
2022-12-22T05:43:51.278Z,62.18
2022-12-22T05:48:55.373Z,61.01
2022-12-22T05:54:00.325Z,61.51
2022-12-22T05:59:05.491Z,61.50
2022-12-22T06:04:09.836Z,61.16
2022-12-22T06:09:14.076Z,61.88
2022-12-22T06:14:18.862Z,61.73
2022-12-22T06:19:29.034Z,61.70
2022-12-22T06:24:33.283Z,61.87
2022-12-22T06:29:37.475Z,61.51
2022-12-22T06:34:41.593Z,61.61
2022-12-22T06:39:45.644Z,61.93
2022-12-22T06:44:51.226Z,61.48
2022-12-22T06:49:55.217Z,60.50
2022-12-22T06:55:06.798Z,60.26
2022-12-22T07:00:11.689Z,59.78
2022-12-22T07:05:16.244Z,59.89
2022-12-22T07:10:40.204Z,61.30
2022-12-22T07:15:44.275Z,60.43
2022-12-22T07:20:48.416Z,60.47
2022-12-22T07:25:52.754Z,60.70
2022-12-22T07:30:57.057Z,60.59
2022-12-22T07:36:07.003Z,60.95
2022-12-22T07:41:31.049Z,60.52
2022-12-22T07:46:39.526Z,60.17
2022-12-22T07:51:44.565Z,60.09
2022-12-22T07:56:48.945Z,59.90
2022-12-22T08:01:53.400Z,59.33
2022-12-22T08:06:59.753Z,58.45
2022-12-22T08:12:03.841Z,58.38
2022-12-22T08:17:08.080Z,58.01
2022-12-22T08:22:12.926Z,57.81
2022-12-22T08:27:25.961Z,57.97
2022-12-22T08:32:31.167Z,58.14
2022-12-22T08:37:41.790Z,57.82
2022-12-22T08:42:47.894Z,57.59
2022-12-22T08:47:52.033Z,56.94
2022-12-22T08:53:03.984Z,57.25
2022-12-22T08:58:08.396Z,56.02
2022-12-22T09:03:12.655Z,56.22
2022-12-22T09:08:16.683Z,56.40
2022-12-22T09:13:20.961Z,56.25
2022-12-22T09:18:24.956Z,56.00
2022-12-22T09:23:32.687Z,56.29
2022-12-22T09:28:37.993Z,56.07
2022-12-22T09:33:42.071Z,55.71
2022-12-22T09:38:46.466Z,55.84
2022-12-22T09:43:50.682Z,55.30
2022-12-22T09:48:55.536Z,54.99
2022-12-22T09:54:01.972Z,55.91
2022-12-22T09:59:14.006Z,56.22
2022-12-22T10:04:18.033Z,56.16
2022-12-22T10:09:48.728Z,55.55
2022-12-22T10:14:51.084Z,55.32
2022-12-22T10:20:07.399Z,55.16
2022-12-22T10:25:27.268Z,54.82
2022-12-22T10:30:40.771Z,54.79
2022-12-22T10:35:52.815Z,55.44
2022-12-22T10:41:02.887Z,55.53
2022-12-22T10:46:07.718Z,55.53
2022-12-22T10:51:14.284Z,55.23
2022-12-22T10:56:30.896Z,55.18
2022-12-22T11:01:38.959Z,55.63
2022-12-22T11:06:44.565Z,55.99
2022-12-22T11:11:58.933Z,55.78
2022-12-22T11:17:20.856Z,56.15
2022-12-22T11:23:05.300Z,55.89
2022-12-22T11:28:27.731Z,55.58
2022-12-22T11:33:44.924Z,55.76
2022-12-22T11:39:05.190Z,56.44
2022-12-22T11:44:39.535Z,57.33
2022-12-22T11:49:52.652Z,58.06
2022-12-22T11:55:12.964Z,58.98
2022-12-22T12:00:19.387Z,59.64
2022-12-22T12:05:29.450Z,58.80
2022-12-22T12:10:44.518Z,59.34
2022-12-22T12:16:04.803Z,59.15
2022-12-22T12:21:43.592Z,59.36
2022-12-22T12:27:12.412Z,58.92
2022-12-22T12:32:34.749Z,59.25
2022-12-22T12:37:40.477Z,59.47
2022-12-22T12:42:47.565Z,60.29
2022-12-22T12:47:51.687Z,60.87
2022-12-22T12:52:58.783Z,60.41
2022-12-22T12:58:04.841Z,61.41
2022-12-22T13:03:25.080Z,60.36
2022-12-22T13:09:22.129Z,59.74
2022-12-22T13:15:21.239Z,59.85
2022-12-22T13:20:29.116Z,59.93
2022-12-22T13:25:48.487Z,59.80
2022-12-22T13:31:15.508Z,60.03
2022-12-22T13:36:27.884Z,59.86
2022-12-22T13:41:35.191Z,59.19
2022-12-22T13:46:40.849Z,59.10
2022-12-22T13:51:48.593Z,59.55
2022-12-22T13:56:57.413Z,59.16
2022-12-22T14:02:09.444Z,59.01
2022-12-22T14:07:16.646Z,59.00
2022-12-22T14:12:47.782Z,59.01
2022-12-22T14:17:53.497Z,59.46
2022-12-22T14:23:54.763Z,58.71
2022-12-22T14:29:00.454Z,59.22
2022-12-22T14:34:06.038Z,58.96
2022-12-22T14:39:23.791Z,59.25
2022-12-22T14:55:51.748Z,59.62
2022-12-22T15:01:22.194Z,60.66
2022-12-22T15:06:32.458Z,59.78
2022-12-22T15:11:48.285Z,60.45
2022-12-22T15:16:58.780Z,60.10
2022-12-22T15:22:09.875Z,59.62
2022-12-22T15:27:15.509Z,60.05
2022-12-22T15:32:20.780Z,60.34
2022-12-22T15:37:26.089Z,59.88
2022-12-22T15:42:31.645Z,59.60
2022-12-22T15:48:02.269Z,59.79
2022-12-22T15:53:09.942Z,58.71
2022-12-22T15:58:19.017Z,59.34
2022-12-22T16:03:24.342Z,59.32
2022-12-22T16:08:33.672Z,59.21
2022-12-22T16:13:39.353Z,59.06
2022-12-22T16:18:44.734Z,59.21
2022-12-22T16:23:51.935Z,59.07
2022-12-22T16:28:58.858Z,59.86
2022-12-22T16:34:05.372Z,58.64
2022-12-22T16:39:10.858Z,58.56
2022-12-22T16:44:24.227Z,59.41
2022-12-22T16:49:29.631Z,58.79
2022-12-22T16:54:36.761Z,59.32
2022-12-22T16:59:43.169Z,59.58
2022-12-22T17:04:48.651Z,59.46
2022-12-22T17:10:02.959Z,59.38
2022-12-22T17:15:09.090Z,58.92
2022-12-22T17:20:19.852Z,58.92
2022-12-22T17:25:32.499Z,58.49
2022-12-22T17:30:37.865Z,58.53
2022-12-22T17:35:45.436Z,59.02
2022-12-22T17:40:50.732Z,57.85
2022-12-22T17:45:56.021Z,57.83
2022-12-22T17:51:01.470Z,58.80
2022-12-22T17:56:08.940Z,58.42
2022-12-22T18:01:26.911Z,59.55
2022-12-22T18:06:36.174Z,58.93
2022-12-22T18:11:45.871Z,59.04
2022-12-22T18:16:52.928Z,58.58
2022-12-22T18:21:58.439Z,59.77
2022-12-22T18:27:03.727Z,59.06
2022-12-22T18:32:09.965Z,58.84
2022-12-22T18:37:18.297Z,59.23
2022-12-22T18:42:24.699Z,59.88
2022-12-22T18:47:29.874Z,59.14
2022-12-22T18:52:35.155Z,59.61
2022-12-22T18:57:46.273Z,59.24
2022-12-22T19:02:53.810Z,59.45
2022-12-22T19:08:00.181Z,59.87
2022-12-22T19:13:08.907Z,60.96
2022-12-22T19:18:25.952Z,61.08
2022-12-22T19:23:34.888Z,61.86
2022-12-22T19:28:43.571Z,61.96
2022-12-22T19:33:49.050Z,62.54
2022-12-22T19:39:03.540Z,62.00
2022-12-22T19:44:18.443Z,61.16
2022-12-22T19:49:25.891Z,61.61
2022-12-22T19:54:32.962Z,60.38
2022-12-22T19:59:41.827Z,60.48
2022-12-22T20:04:47.355Z,60.33
2022-12-22T20:09:52.946Z,60.49
2022-12-22T20:14:58.517Z,60.09
2022-12-22T20:20:04.003Z,60.60
2022-12-22T20:25:16.230Z,60.88
2022-12-22T20:30:29.391Z,61.55
2022-12-22T20:35:37.254Z,61.79
2022-12-22T20:40:42.887Z,61.08
2022-12-22T20:45:51.609Z,61.54
2022-12-22T20:50:57.227Z,61.38
2022-12-22T20:56:03.114Z,61.65
2022-12-22T21:01:08.719Z,61.42
2022-12-22T21:06:38.425Z,61.10
2022-12-22T21:11:44.111Z,61.50
2022-12-22T21:16:49.704Z,61.63
2022-12-22T21:21:55.365Z,61.45
2022-12-22T21:27:00.876Z,61.86
2022-12-22T21:32:06.181Z,61.62
2022-12-22T21:37:19.378Z,61.36
2022-12-22T21:42:24.533Z,61.09
2022-12-22T21:47:29.710Z,61.73
2022-12-22T21:52:35.029Z,60.74
2022-12-22T21:57:40.300Z,60.80
2022-12-22T22:02:47.141Z,61.86
2022-12-22T22:07:53.155Z,62.08
2022-12-22T22:12:59.159Z,61.51
2022-12-22T22:18:07.195Z,62.39
2022-12-22T22:23:15.989Z,62.28
2022-12-22T22:28:21.188Z,62.30
2022-12-22T22:33:26.772Z,62.71
2022-12-22T22:38:32.052Z,64.04
2022-12-22T22:43:37.278Z,65.90
2022-12-22T22:48:42.723Z,66.23
2022-12-22T22:53:47.986Z,66.56
2022-12-22T22:58:53.336Z,67.34
2022-12-22T23:03:58.660Z,67.62
2022-12-22T23:09:04.603Z,66.56
2022-12-22T23:14:10.209Z,67.32
2022-12-22T23:19:15.772Z,65.88
2022-12-22T23:24:21.144Z,66.58
2022-12-22T23:29:26.397Z,66.29
2022-12-22T23:34:32.278Z,65.07
2022-12-22T23:39:37.548Z,66.74
2022-12-22T23:44:42.695Z,66.27
2022-12-22T23:49:47.976Z,66.46
2022-12-22T23:54:53.334Z,65.61
2022-12-22T23:59:58.577Z,66.11
